sensor_id;sensor_type;location;lat;lon;timestamp;P1;durP1;ratioP1;P2;durP2;ratioP2
39740;SDS011;25426;53.478;10.190;2023-05-07T00:02:19;17.75;;;14.88;;
39740;SDS011;25426;53.478;10.190;2023-05-07T00:04:49;16.30;;;14.60;;
39740;SDS011;25426;53.478;10.190;2023-05-07T00:07:21;16.55;;;13.55;;
39740;SDS011;25426;53.478;10.190;2023-05-07T00:09:52;15.77;;;13.80;;
39740;SDS011;25426;53.478;10.190;2023-05-07T00:12:23;17.38;;;14.07;;
39740;SDS011;25426;53.478;10.190;2023-05-07T00:14:55;14.60;;;12.77;;
39740;SDS011;25426;53.478;10.190;2023-05-07T00:17:26;16.15;;;14.05;;
39740;SDS011;25426;53.478;10.190;2023-05-07T00:19:57;14.30;;;12.27;;
39740;SDS011;25426;53.478;10.190;2023-05-07T00:22:28;14.43;;;13.00;;
39740;SDS011;25426;53.478;10.190;2023-05-07T00:25:00;12.95;;;11.27;;
39740;SDS011;25426;53.478;10.190;2023-05-07T00:27:31;13.45;;;12.05;;
39740;SDS011;25426;53.478;10.190;2023-05-07T00:30:02;14.35;;;12.05;;
39740;SDS011;25426;53.478;10.190;2023-05-07T00:32:33;14.02;;;12.52;;
39740;SDS011;25426;53.478;10.190;2023-05-07T00:35:04;13.30;;;11.63;;
39740;SDS011;25426;53.478;10.190;2023-05-07T00:37:36;13.35;;;11.77;;
39740;SDS011;25426;53.478;10.190;2023-05-07T00:40:07;13.43;;;12.02;;
39740;SDS011;25426;53.478;10.190;2023-05-07T00:42:39;12.60;;;11.10;;
39740;SDS011;25426;53.478;10.190;2023-05-07T00:45:10;13.30;;;11.93;;
39740;SDS011;25426;53.478;10.190;2023-05-07T00:47:41;14.32;;;11.93;;
39740;SDS011;25426;53.478;10.190;2023-05-07T00:50:13;14.18;;;12.73;;
39740;SDS011;25426;53.478;10.190;2023-05-07T00:52:44;14.10;;;12.13;;
39740;SDS011;25426;53.478;10.190;2023-05-07T00:55:15;13.93;;;12.55;;
39740;SDS011;25426;53.478;10.190;2023-05-07T00:57:46;12.73;;;11.50;;
39740;SDS011;25426;53.478;10.190;2023-05-07T01:00:17;12.43;;;11.10;;
39740;SDS011;25426;53.478;10.190;2023-05-07T01:02:48;12.13;;;10.93;;
39740;SDS011;25426;53.478;10.190;2023-05-07T01:05:19;11.82;;;10.50;;
39740;SDS011;25426;53.478;10.190;2023-05-07T01:07:51;11.82;;;10.63;;
39740;SDS011;25426;53.478;10.190;2023-05-07T01:10:24;11.90;;;10.80;;
39740;SDS011;25426;53.478;10.190;2023-05-07T01:12:57;12.35;;;11.05;;
39740;SDS011;25426;53.478;10.190;2023-05-07T01:15:30;12.25;;;10.98;;
39740;SDS011;25426;53.478;10.190;2023-05-07T01:18:01;11.15;;;9.95;;
39740;SDS011;25426;53.478;10.190;2023-05-07T01:20:37;12.93;;;10.45;;
39740;SDS011;25426;53.478;10.190;2023-05-07T01:23:08;11.18;;;10.07;;
39740;SDS011;25426;53.478;10.190;2023-05-07T01:25:41;10.90;;;9.88;;
39740;SDS011;25426;53.478;10.190;2023-05-07T01:28:13;10.57;;;9.48;;
39740;SDS011;25426;53.478;10.190;2023-05-07T01:30:49;10.43;;;9.30;;
39740;SDS011;25426;53.478;10.190;2023-05-07T01:33:25;9.40;;;8.50;;
39740;SDS011;25426;53.478;10.190;2023-05-07T01:35:56;9.65;;;8.65;;
39740;SDS011;25426;53.478;10.190;2023-05-07T01:38:30;9.50;;;8.60;;
39740;SDS011;25426;53.478;10.190;2023-05-07T01:41:01;10.95;;;9.85;;
39740;SDS011;25426;53.478;10.190;2023-05-07T01:43:32;12.65;;;10.35;;
39740;SDS011;25426;53.478;10.190;2023-05-07T01:46:04;11.35;;;10.25;;
39740;SDS011;25426;53.478;10.190;2023-05-07T01:48:35;10.07;;;9.07;;
39740;SDS011;25426;53.478;10.190;2023-05-07T01:51:06;11.60;;;10.38;;
39740;SDS011;25426;53.478;10.190;2023-05-07T01:53:38;11.45;;;10.35;;
39740;SDS011;25426;53.478;10.190;2023-05-07T01:56:10;12.35;;;11.07;;
39740;SDS011;25426;53.478;10.190;2023-05-07T01:58:44;12.40;;;11.13;;
39740;SDS011;25426;53.478;10.190;2023-05-07T02:01:19;13.73;;;11.88;;
39740;SDS011;25426;53.478;10.190;2023-05-07T02:03:50;14.02;;;12.57;;
39740;SDS011;25426;53.478;10.190;2023-05-07T02:06:27;12.57;;;11.18;;
39740;SDS011;25426;53.478;10.190;2023-05-07T02:09:02;12.75;;;11.45;;
39740;SDS011;25426;53.478;10.190;2023-05-07T02:11:33;11.95;;;10.65;;
39740;SDS011;25426;53.478;10.190;2023-05-07T02:14:05;12.77;;;11.45;;
39740;SDS011;25426;53.478;10.190;2023-05-07T02:16:36;13.32;;;10.88;;
39740;SDS011;25426;53.478;10.190;2023-05-07T02:19:07;12.43;;;11.20;;
39740;SDS011;25426;53.478;10.190;2023-05-07T02:21:38;12.27;;;10.90;;
39740;SDS011;25426;53.478;10.190;2023-05-07T02:24:09;13.25;;;11.00;;
39740;SDS011;25426;53.478;10.190;2023-05-07T02:26:40;15.32;;;10.45;;
39740;SDS011;25426;53.478;10.190;2023-05-07T02:29:11;11.75;;;10.55;;
39740;SDS011;25426;53.478;10.190;2023-05-07T02:31:43;13.05;;;11.07;;
39740;SDS011;25426;53.478;10.190;2023-05-07T02:34:14;13.50;;;11.18;;
39740;SDS011;25426;53.478;10.190;2023-05-07T02:36:45;12.23;;;10.63;;
39740;SDS011;25426;53.478;10.190;2023-05-07T02:39:20;13.13;;;10.90;;
39740;SDS011;25426;53.478;10.190;2023-05-07T02:41:51;13.05;;;11.27;;
39740;SDS011;25426;53.478;10.190;2023-05-07T02:44:22;14.55;;;12.30;;
39740;SDS011;25426;53.478;10.190;2023-05-07T02:46:55;14.38;;;12.38;;
39740;SDS011;25426;53.478;10.190;2023-05-07T02:49:26;14.75;;;11.18;;
39740;SDS011;25426;53.478;10.190;2023-05-07T02:51:57;13.15;;;11.70;;
39740;SDS011;25426;53.478;10.190;2023-05-07T02:54:28;14.07;;;12.57;;
39740;SDS011;25426;53.478;10.190;2023-05-07T02:57:00;13.60;;;12.20;;
39740;SDS011;25426;53.478;10.190;2023-05-07T02:59:32;15.02;;;12.13;;
39740;SDS011;25426;53.478;10.190;2023-05-07T03:02:03;15.95;;;13.02;;
39740;SDS011;25426;53.478;10.190;2023-05-07T03:04:34;13.90;;;12.50;;
39740;SDS011;25426;53.478;10.190;2023-05-07T03:07:05;14.00;;;12.50;;
39740;SDS011;25426;53.478;10.190;2023-05-07T03:09:36;15.82;;;12.30;;
39740;SDS011;25426;53.478;10.190;2023-05-07T03:12:07;14.95;;;12.63;;
39740;SDS011;25426;53.478;10.190;2023-05-07T03:14:38;16.08;;;12.55;;
39740;SDS011;25426;53.478;10.190;2023-05-07T03:17:09;13.57;;;12.18;;
39740;SDS011;25426;53.478;10.190;2023-05-07T03:19:40;13.75;;;12.32;;
39740;SDS011;25426;53.478;10.190;2023-05-07T03:22:11;13.68;;;12.05;;
39740;SDS011;25426;53.478;10.190;2023-05-07T03:24:42;13.43;;;12.07;;
39740;SDS011;25426;53.478;10.190;2023-05-07T03:27:13;13.05;;;11.65;;
39740;SDS011;25426;53.478;10.190;2023-05-07T03:29:44;12.98;;;11.60;;
39740;SDS011;25426;53.478;10.190;2023-05-07T03:32:15;12.57;;;11.27;;
39740;SDS011;25426;53.478;10.190;2023-05-07T03:34:47;12.77;;;11.48;;
39740;SDS011;25426;53.478;10.190;2023-05-07T03:37:18;14.23;;;11.88;;
39740;SDS011;25426;53.478;10.190;2023-05-07T03:39:49;12.60;;;11.27;;
39740;SDS011;25426;53.478;10.190;2023-05-07T03:42:20;13.00;;;11.60;;
39740;SDS011;25426;53.478;10.190;2023-05-07T03:44:55;12.65;;;11.35;;
39740;SDS011;25426;53.478;10.190;2023-05-07T03:47:26;13.20;;;11.88;;
39740;SDS011;25426;53.478;10.190;2023-05-07T03:49:58;13.02;;;11.73;;
39740;SDS011;25426;53.478;10.190;2023-05-07T03:52:29;13.15;;;11.85;;
39740;SDS011;25426;53.478;10.190;2023-05-07T03:55:03;12.75;;;11.45;;
39740;SDS011;25426;53.478;10.190;2023-05-07T03:57:37;12.65;;;11.48;;
39740;SDS011;25426;53.478;10.190;2023-05-07T04:00:09;12.05;;;10.85;;
39740;SDS011;25426;53.478;10.190;2023-05-07T04:02:50;13.27;;;11.93;;
39740;SDS011;25426;53.478;10.190;2023-05-07T04:05:28;13.50;;;12.10;;
39740;SDS011;25426;53.478;10.190;2023-05-07T04:08:04;12.77;;;11.38;;
39740;SDS011;25426;53.478;10.190;2023-05-07T04:10:54;12.05;;;10.82;;
39740;SDS011;25426;53.478;10.190;2023-05-07T04:13:28;13.52;;;12.00;;
39740;SDS011;25426;53.478;10.190;2023-05-07T04:16:02;13.20;;;11.23;;
39740;SDS011;25426;53.478;10.190;2023-05-07T04:18:38;14.30;;;12.15;;
39740;SDS011;25426;53.478;10.190;2023-05-07T04:21:16;13.70;;;11.95;;
39740;SDS011;25426;53.478;10.190;2023-05-07T04:23:48;12.20;;;10.90;;
39740;SDS011;25426;53.478;10.190;2023-05-07T04:26:19;18.10;;;11.50;;
39740;SDS011;25426;53.478;10.190;2023-05-07T04:28:51;12.00;;;10.80;;
39740;SDS011;25426;53.478;10.190;2023-05-07T04:31:22;11.55;;;10.50;;
39740;SDS011;25426;53.478;10.190;2023-05-07T04:33:56;12.38;;;11.07;;
39740;SDS011;25426;53.478;10.190;2023-05-07T04:36:27;11.77;;;10.57;;
39740;SDS011;25426;53.478;10.190;2023-05-07T04:39:06;12.43;;;11.05;;
39740;SDS011;25426;53.478;10.190;2023-05-07T04:41:37;11.27;;;10.07;;
39740;SDS011;25426;53.478;10.190;2023-05-07T04:44:09;11.27;;;9.75;;
39740;SDS011;25426;53.478;10.190;2023-05-07T04:46:41;11.13;;;10.10;;
39740;SDS011;25426;53.478;10.190;2023-05-07T04:49:12;10.38;;;9.27;;
39740;SDS011;25426;53.478;10.190;2023-05-07T04:51:43;11.25;;;10.02;;
39740;SDS011;25426;53.478;10.190;2023-05-07T04:54:15;10.88;;;9.68;;
39740;SDS011;25426;53.478;10.190;2023-05-07T04:56:46;11.20;;;10.00;;
39740;SDS011;25426;53.478;10.190;2023-05-07T04:59:17;11.55;;;10.10;;
39740;SDS011;25426;53.478;10.190;2023-05-07T05:01:48;11.00;;;9.57;;
39740;SDS011;25426;53.478;10.190;2023-05-07T05:04:18;12.57;;;10.10;;
39740;SDS011;25426;53.478;10.190;2023-05-07T05:06:50;9.95;;;8.95;;
39740;SDS011;25426;53.478;10.190;2023-05-07T05:09:21;12.35;;;10.27;;
39740;SDS011;25426;53.478;10.190;2023-05-07T05:11:52;11.25;;;10.15;;
39740;SDS011;25426;53.478;10.190;2023-05-07T05:14:24;11.10;;;10.00;;
39740;SDS011;25426;53.478;10.190;2023-05-07T05:16:55;10.48;;;9.43;;
39740;SDS011;25426;53.478;10.190;2023-05-07T05:19:26;12.35;;;11.07;;
39740;SDS011;25426;53.478;10.190;2023-05-07T05:21:57;10.80;;;9.80;;
39740;SDS011;25426;53.478;10.190;2023-05-07T05:24:28;12.52;;;11.23;;
39740;SDS011;25426;53.478;10.190;2023-05-07T05:27:00;12.32;;;10.15;;
39740;SDS011;25426;53.478;10.190;2023-05-07T05:29:34;10.57;;;9.48;;
39740;SDS011;25426;53.478;10.190;2023-05-07T05:32:05;11.80;;;9.88;;
39740;SDS011;25426;53.478;10.190;2023-05-07T05:34:37;11.02;;;9.93;;
39740;SDS011;25426;53.478;10.190;2023-05-07T05:37:09;11.73;;;10.55;;
39740;SDS011;25426;53.478;10.190;2023-05-07T05:39:40;10.57;;;9.57;;
39740;SDS011;25426;53.478;10.190;2023-05-07T05:42:13;12.00;;;10.70;;
39740;SDS011;25426;53.478;10.190;2023-05-07T05:44:44;10.93;;;9.93;;
39740;SDS011;25426;53.478;10.190;2023-05-07T05:47:16;11.38;;;10.23;;
39740;SDS011;25426;53.478;10.190;2023-05-07T05:49:47;11.00;;;9.90;;
39740;SDS011;25426;53.478;10.190;2023-05-07T05:52:20;18.80;;;10.75;;
39740;SDS011;25426;53.478;10.190;2023-05-07T05:54:53;13.00;;;11.70;;
39740;SDS011;25426;53.478;10.190;2023-05-07T05:57:24;10.93;;;9.82;;
39740;SDS011;25426;53.478;10.190;2023-05-07T05:59:55;10.55;;;9.55;;
39740;SDS011;25426;53.478;10.190;2023-05-07T06:02:27;10.80;;;9.80;;
39740;SDS011;25426;53.478;10.190;2023-05-07T06:04:58;11.35;;;9.80;;
39740;SDS011;25426;53.478;10.190;2023-05-07T06:07:30;12.38;;;10.18;;
39740;SDS011;25426;53.478;10.190;2023-05-07T06:10:01;11.50;;;10.27;;
39740;SDS011;25426;53.478;10.190;2023-05-07T06:12:36;10.68;;;9.60;;
39740;SDS011;25426;53.478;10.190;2023-05-07T06:15:07;11.70;;;9.90;;
39740;SDS011;25426;53.478;10.190;2023-05-07T06:17:38;11.30;;;10.20;;
39740;SDS011;25426;53.478;10.190;2023-05-07T06:20:10;11.68;;;10.32;;
39740;SDS011;25426;53.478;10.190;2023-05-07T06:22:42;12.07;;;10.88;;
39740;SDS011;25426;53.478;10.190;2023-05-07T06:25:15;11.35;;;10.25;;
39740;SDS011;25426;53.478;10.190;2023-05-07T06:27:47;11.38;;;10.18;;
39740;SDS011;25426;53.478;10.190;2023-05-07T06:30:18;11.20;;;9.80;;
39740;SDS011;25426;53.478;10.190;2023-05-07T06:32:51;13.40;;;9.95;;
39740;SDS011;25426;53.478;10.190;2023-05-07T06:35:22;11.27;;;10.05;;
39740;SDS011;25426;53.478;10.190;2023-05-07T06:37:53;10.13;;;9.07;;
39740;SDS011;25426;53.478;10.190;2023-05-07T06:40:27;10.32;;;9.30;;
39740;SDS011;25426;53.478;10.190;2023-05-07T06:42:59;10.85;;;9.75;;
39740;SDS011;25426;53.478;10.190;2023-05-07T06:45:51;9.55;;;8.55;;
39740;SDS011;25426;53.478;10.190;2023-05-07T06:48:23;9.70;;;8.73;;
39740;SDS011;25426;53.478;10.190;2023-05-07T06:51:01;11.10;;;10.00;;
39740;SDS011;25426;53.478;10.190;2023-05-07T06:53:35;9.88;;;8.52;;
39740;SDS011;25426;53.478;10.190;2023-05-07T06:56:07;10.07;;;8.98;;
39740;SDS011;25426;53.478;10.190;2023-05-07T06:58:39;9.65;;;8.65;;
39740;SDS011;25426;53.478;10.190;2023-05-07T07:01:12;10.38;;;8.77;;
39740;SDS011;25426;53.478;10.190;2023-05-07T07:03:43;9.60;;;8.70;;
39740;SDS011;25426;53.478;10.190;2023-05-07T07:06:14;10.15;;;8.52;;
39740;SDS011;25426;53.478;10.190;2023-05-07T07:08:45;8.70;;;7.90;;
39740;SDS011;25426;53.478;10.190;2023-05-07T07:11:18;8.90;;;7.90;;
39740;SDS011;25426;53.478;10.190;2023-05-07T07:13:50;8.98;;;8.07;;
39740;SDS011;25426;53.478;10.190;2023-05-07T07:16:21;9.38;;;8.40;;
39740;SDS011;25426;53.478;10.190;2023-05-07T07:18:54;9.20;;;8.30;;
39740;SDS011;25426;53.478;10.190;2023-05-07T07:21:25;9.27;;;8.38;;
39740;SDS011;25426;53.478;10.190;2023-05-07T07:23:56;8.40;;;7.60;;
39740;SDS011;25426;53.478;10.190;2023-05-07T07:26:27;10.93;;;8.70;;
39740;SDS011;25426;53.478;10.190;2023-05-07T07:28:58;9.98;;;8.98;;
39740;SDS011;25426;53.478;10.190;2023-05-07T07:31:30;10.35;;;8.10;;
39740;SDS011;25426;53.478;10.190;2023-05-07T07:34:01;8.73;;;7.82;;
39740;SDS011;25426;53.478;10.190;2023-05-07T07:36:32;9.45;;;8.38;;
39740;SDS011;25426;53.478;10.190;2023-05-07T07:39:03;9.00;;;8.20;;
39740;SDS011;25426;53.478;10.190;2023-05-07T07:41:34;8.82;;;7.82;;
39740;SDS011;25426;53.478;10.190;2023-05-07T07:44:05;9.13;;;8.23;;
39740;SDS011;25426;53.478;10.190;2023-05-07T07:46:43;8.23;;;7.43;;
39740;SDS011;25426;53.478;10.190;2023-05-07T07:49:14;10.63;;;8.02;;
39740;SDS011;25426;53.478;10.190;2023-05-07T07:51:46;8.57;;;7.78;;
39740;SDS011;25426;53.478;10.190;2023-05-07T07:54:17;8.63;;;7.55;;
39740;SDS011;25426;53.478;10.190;2023-05-07T07:56:48;8.20;;;7.40;;
39740;SDS011;25426;53.478;10.190;2023-05-07T07:59:19;12.57;;;9.43;;
39740;SDS011;25426;53.478;10.190;2023-05-07T08:01:52;8.18;;;7.47;;
39740;SDS011;25426;53.478;10.190;2023-05-07T08:04:26;10.07;;;8.13;;
39740;SDS011;25426;53.478;10.190;2023-05-07T08:06:59;8.57;;;7.20;;
39740;SDS011;25426;53.478;10.190;2023-05-07T08:09:39;8.52;;;7.65;;
39740;SDS011;25426;53.478;10.190;2023-05-07T08:12:15;8.02;;;7.28;;
39740;SDS011;25426;53.478;10.190;2023-05-07T08:14:46;8.68;;;7.72;;
39740;SDS011;25426;53.478;10.190;2023-05-07T08:17:17;8.27;;;7.57;;
39740;SDS011;25426;53.478;10.190;2023-05-07T08:19:49;9.35;;;7.22;;
39740;SDS011;25426;53.478;10.190;2023-05-07T08:22:21;8.52;;;7.72;;
39740;SDS011;25426;53.478;10.190;2023-05-07T08:24:52;8.50;;;7.68;;
39740;SDS011;25426;53.478;10.190;2023-05-07T08:27:24;10.43;;;8.15;;
39740;SDS011;25426;53.478;10.190;2023-05-07T08:29:55;9.23;;;8.25;;
39740;SDS011;25426;53.478;10.190;2023-05-07T08:32:26;10.00;;;8.25;;
39740;SDS011;25426;53.478;10.190;2023-05-07T08:34:58;8.65;;;7.80;;
39740;SDS011;25426;53.478;10.190;2023-05-07T08:37:30;8.82;;;8.02;;
39740;SDS011;25426;53.478;10.190;2023-05-07T08:40:02;9.52;;;8.63;;
39740;SDS011;25426;53.478;10.190;2023-05-07T08:42:38;8.32;;;7.53;;
39740;SDS011;25426;53.478;10.190;2023-05-07T08:45:13;9.32;;;8.43;;
39740;SDS011;25426;53.478;10.190;2023-05-07T08:47:49;8.40;;;7.32;;
39740;SDS011;25426;53.478;10.190;2023-05-07T08:50:28;8.45;;;7.60;;
39740;SDS011;25426;53.478;10.190;2023-05-07T08:53:00;8.25;;;7.50;;
39740;SDS011;25426;53.478;10.190;2023-05-07T08:55:32;12.40;;;7.82;;
39740;SDS011;25426;53.478;10.190;2023-05-07T08:58:03;8.05;;;7.22;;
39740;SDS011;25426;53.478;10.190;2023-05-07T09:00:36;9.45;;;7.68;;
39740;SDS011;25426;53.478;10.190;2023-05-07T09:03:08;7.03;;;6.32;;
39740;SDS011;25426;53.478;10.190;2023-05-07T09:05:42;7.05;;;6.35;;
39740;SDS011;25426;53.478;10.190;2023-05-07T09:08:15;8.10;;;6.53;;
39740;SDS011;25426;53.478;10.190;2023-05-07T09:10:47;7.10;;;6.40;;
39740;SDS011;25426;53.478;10.190;2023-05-07T09:13:19;8.00;;;7.20;;
39740;SDS011;25426;53.478;10.190;2023-05-07T09:15:50;7.70;;;7.00;;
39740;SDS011;25426;53.478;10.190;2023-05-07T09:18:25;8.93;;;8.07;;
39740;SDS011;25426;53.478;10.190;2023-05-07T09:20:56;8.07;;;7.30;;
39740;SDS011;25426;53.478;10.190;2023-05-07T09:23:27;8.05;;;7.28;;
39740;SDS011;25426;53.478;10.190;2023-05-07T09:26:00;8.68;;;7.88;;
39740;SDS011;25426;53.478;10.190;2023-05-07T09:28:34;10.75;;;7.82;;
39740;SDS011;25426;53.478;10.190;2023-05-07T09:31:05;8.90;;;8.10;;
39740;SDS011;25426;53.478;10.190;2023-05-07T09:33:37;7.40;;;6.80;;
39740;SDS011;25426;53.478;10.190;2023-05-07T09:36:10;7.70;;;7.00;;
39740;SDS011;25426;53.478;10.190;2023-05-07T09:38:44;8.43;;;7.50;;
39740;SDS011;25426;53.478;10.190;2023-05-07T09:41:16;8.45;;;7.65;;
39740;SDS011;25426;53.478;10.190;2023-05-07T09:43:55;9.38;;;7.40;;
39740;SDS011;25426;53.478;10.190;2023-05-07T09:46:31;8.23;;;7.45;;
39740;SDS011;25426;53.478;10.190;2023-05-07T09:49:18;9.38;;;7.32;;
39740;SDS011;25426;53.478;10.190;2023-05-07T09:51:56;7.90;;;7.10;;
39740;SDS011;25426;53.478;10.190;2023-05-07T09:54:30;8.32;;;7.53;;
39740;SDS011;25426;53.478;10.190;2023-05-07T09:57:03;8.77;;;7.22;;
39740;SDS011;25426;53.478;10.190;2023-05-07T09:59:36;8.00;;;7.30;;
39740;SDS011;25426;53.478;10.190;2023-05-07T10:02:12;8.45;;;7.63;;
39740;SDS011;25426;53.478;10.190;2023-05-07T10:04:51;9.20;;;7.18;;
39740;SDS011;25426;53.478;10.190;2023-05-07T10:07:27;7.32;;;6.57;;
39740;SDS011;25426;53.478;10.190;2023-05-07T10:10:03;7.20;;;6.50;;
39740;SDS011;25426;53.478;10.190;2023-05-07T10:12:41;7.18;;;6.50;;
39740;SDS011;25426;53.478;10.190;2023-05-07T10:15:24;7.65;;;6.88;;
39740;SDS011;25426;53.478;10.190;2023-05-07T10:17:58;7.00;;;6.40;;
39740;SDS011;25426;53.478;10.190;2023-05-07T10:20:30;7.57;;;6.38;;
39740;SDS011;25426;53.478;10.190;2023-05-07T10:23:04;11.23;;;6.45;;
39740;SDS011;25426;53.478;10.190;2023-05-07T10:25:42;6.45;;;5.93;;
39740;SDS011;25426;53.478;10.190;2023-05-07T10:28:24;6.68;;;6.13;;
39740;SDS011;25426;53.478;10.190;2023-05-07T10:31:21;7.00;;;6.30;;
39740;SDS011;25426;53.478;10.190;2023-05-07T10:34:37;6.20;;;5.60;;
39740;SDS011;25426;53.478;10.190;2023-05-07T10:37:14;6.10;;;5.60;;
39740;SDS011;25426;53.478;10.190;2023-05-07T10:39:45;6.80;;;6.20;;
39740;SDS011;25426;53.478;10.190;2023-05-07T10:42:24;7.18;;;5.93;;
39740;SDS011;25426;53.478;10.190;2023-05-07T10:45:10;6.65;;;5.95;;
39740;SDS011;25426;53.478;10.190;2023-05-07T10:50:44;7.00;;;6.18;;
39740;SDS011;25426;53.478;10.190;2023-05-07T10:58:55;10.10;;;6.53;;
39740;SDS011;25426;53.478;10.190;2023-05-07T11:01:53;6.88;;;6.28;;
39740;SDS011;25426;53.478;10.190;2023-05-07T11:08:00;6.32;;;5.43;;
39740;SDS011;25426;53.478;10.190;2023-05-07T11:10:52;5.25;;;4.85;;
39740;SDS011;25426;53.478;10.190;2023-05-07T11:13:43;6.20;;;5.63;;
39740;SDS011;25426;53.478;10.190;2023-05-07T11:16:37;6.13;;;5.63;;
39740;SDS011;25426;53.478;10.190;2023-05-07T11:19:47;6.18;;;5.57;;
39740;SDS011;25426;53.478;10.190;2023-05-07T11:22:51;5.53;;;5.00;;
39740;SDS011;25426;53.478;10.190;2023-05-07T11:25:40;6.50;;;5.90;;
39740;SDS011;25426;53.478;10.190;2023-05-07T11:28:30;6.63;;;5.43;;
39740;SDS011;25426;53.478;10.190;2023-05-07T11:31:12;6.15;;;5.55;;
39740;SDS011;25426;53.478;10.190;2023-05-07T11:33:44;5.38;;;4.90;;
39740;SDS011;25426;53.478;10.190;2023-05-07T11:36:18;8.35;;;5.28;;
39740;SDS011;25426;53.478;10.190;2023-05-07T11:38:55;5.97;;;5.43;;
39740;SDS011;25426;53.478;10.190;2023-05-07T11:41:35;5.97;;;5.38;;
39740;SDS011;25426;53.478;10.190;2023-05-07T11:44:07;5.07;;;4.57;;
39740;SDS011;25426;53.478;10.190;2023-05-07T11:46:42;5.53;;;5.03;;
39740;SDS011;25426;53.478;10.190;2023-05-07T11:49:14;6.00;;;4.07;;
39740;SDS011;25426;53.478;10.190;2023-05-07T11:51:47;4.30;;;3.90;;
39740;SDS011;25426;53.478;10.190;2023-05-07T11:54:18;4.68;;;4.28;;
39740;SDS011;25426;53.478;10.190;2023-05-07T11:56:49;6.18;;;4.18;;
39740;SDS011;25426;53.478;10.190;2023-05-07T11:59:20;4.78;;;4.38;;
39740;SDS011;25426;53.478;10.190;2023-05-07T12:01:50;3.92;;;3.63;;
39740;SDS011;25426;53.478;10.190;2023-05-07T12:04:21;4.00;;;3.67;;
39740;SDS011;25426;53.478;10.190;2023-05-07T12:06:55;3.90;;;3.60;;
39740;SDS011;25426;53.478;10.190;2023-05-07T12:09:26;4.03;;;3.53;;
39740;SDS011;25426;53.478;10.190;2023-05-07T12:11:58;3.60;;;3.30;;
39740;SDS011;25426;53.478;10.190;2023-05-07T12:14:39;3.80;;;3.50;;
39740;SDS011;25426;53.478;10.190;2023-05-07T12:17:12;5.63;;;3.30;;
39740;SDS011;25426;53.478;10.190;2023-05-07T12:19:44;5.57;;;3.42;;
39740;SDS011;25426;53.478;10.190;2023-05-07T12:22:15;5.10;;;3.33;;
39740;SDS011;25426;53.478;10.190;2023-05-07T12:24:47;3.95;;;3.55;;
39740;SDS011;25426;53.478;10.190;2023-05-07T12:27:20;3.92;;;3.35;;
39740;SDS011;25426;53.478;10.190;2023-05-07T12:29:51;3.88;;;3.58;;
39740;SDS011;25426;53.478;10.190;2023-05-07T12:32:22;5.32;;;4.00;;
39740;SDS011;25426;53.478;10.190;2023-05-07T12:34:53;3.85;;;3.40;;
39740;SDS011;25426;53.478;10.190;2023-05-07T12:37:27;3.63;;;3.33;;
39740;SDS011;25426;53.478;10.190;2023-05-07T12:40:05;3.85;;;3.55;;
39740;SDS011;25426;53.478;10.190;2023-05-07T12:42:41;3.85;;;3.22;;
39740;SDS011;25426;53.478;10.190;2023-05-07T12:45:15;3.58;;;3.25;;
39740;SDS011;25426;53.478;10.190;2023-05-07T12:47:46;3.80;;;3.50;;
39740;SDS011;25426;53.478;10.190;2023-05-07T12:50:17;4.22;;;3.83;;
39740;SDS011;25426;53.478;10.190;2023-05-07T12:52:48;3.67;;;3.33;;
39740;SDS011;25426;53.478;10.190;2023-05-07T12:55:19;3.95;;;3.55;;
39740;SDS011;25426;53.478;10.190;2023-05-07T12:57:50;4.57;;;3.55;;
39740;SDS011;25426;53.478;10.190;2023-05-07T13:00:35;3.35;;;3.03;;
39740;SDS011;25426;53.478;10.190;2023-05-07T13:03:08;3.75;;;3.40;;
39740;SDS011;25426;53.478;10.190;2023-05-07T13:05:40;5.47;;;4.13;;
39740;SDS011;25426;53.478;10.190;2023-05-07T13:08:11;3.53;;;3.22;;
39740;SDS011;25426;53.478;10.190;2023-05-07T13:10:42;3.42;;;3.10;;
39740;SDS011;25426;53.478;10.190;2023-05-07T13:13:13;4.22;;;3.33;;
39740;SDS011;25426;53.478;10.190;2023-05-07T13:15:44;5.45;;;3.15;;
39740;SDS011;25426;53.478;10.190;2023-05-07T13:18:16;4.20;;;3.20;;
39740;SDS011;25426;53.478;10.190;2023-05-07T13:20:47;3.33;;;2.88;;
39740;SDS011;25426;53.478;10.190;2023-05-07T13:23:18;3.10;;;2.80;;
39740;SDS011;25426;53.478;10.190;2023-05-07T13:25:49;4.22;;;2.67;;
39740;SDS011;25426;53.478;10.190;2023-05-07T13:28:21;3.30;;;2.88;;
39740;SDS011;25426;53.478;10.190;2023-05-07T13:30:55;3.83;;;3.13;;
39740;SDS011;25426;53.478;10.190;2023-05-07T13:33:26;3.67;;;2.92;;
39740;SDS011;25426;53.478;10.190;2023-05-07T13:35:57;2.50;;;2.30;;
39740;SDS011;25426;53.478;10.190;2023-05-07T13:38:30;3.50;;;3.20;;
39740;SDS011;25426;53.478;10.190;2023-05-07T13:41:01;2.25;;;2.05;;
39740;SDS011;25426;53.478;10.190;2023-05-07T13:43:32;3.00;;;2.70;;
39740;SDS011;25426;53.478;10.190;2023-05-07T13:46:03;2.80;;;2.60;;
39740;SDS011;25426;53.478;10.190;2023-05-07T13:48:34;4.10;;;2.42;;
39740;SDS011;25426;53.478;10.190;2023-05-07T13:51:06;3.53;;;2.38;;
39740;SDS011;25426;53.478;10.190;2023-05-07T13:53:37;3.30;;;2.70;;
39740;SDS011;25426;53.478;10.190;2023-05-07T13:56:08;3.58;;;2.55;;
39740;SDS011;25426;53.478;10.190;2023-05-07T13:58:39;2.47;;;2.28;;
39740;SDS011;25426;53.478;10.190;2023-05-07T14:01:10;4.07;;;2.63;;
39740;SDS011;25426;53.478;10.190;2023-05-07T14:03:41;2.80;;;2.53;;
39740;SDS011;25426;53.478;10.190;2023-05-07T14:06:12;2.47;;;2.28;;
39740;SDS011;25426;53.478;10.190;2023-05-07T14:08:43;3.33;;;2.40;;
39740;SDS011;25426;53.478;10.190;2023-05-07T14:11:14;3.25;;;2.58;;
39740;SDS011;25426;53.478;10.190;2023-05-07T14:13:45;2.50;;;2.30;;
39740;SDS011;25426;53.478;10.190;2023-05-07T14:16:16;3.83;;;2.85;;
39740;SDS011;25426;53.478;10.190;2023-05-07T14:18:47;2.90;;;2.38;;
39740;SDS011;25426;53.478;10.190;2023-05-07T14:21:18;6.88;;;2.80;;
39740;SDS011;25426;53.478;10.190;2023-05-07T14:23:48;2.47;;;2.28;;
39740;SDS011;25426;53.478;10.190;2023-05-07T14:26:19;3.08;;;2.50;;
39740;SDS011;25426;53.478;10.190;2023-05-07T14:28:50;2.35;;;2.10;;
39740;SDS011;25426;53.478;10.190;2023-05-07T14:31:21;5.05;;;2.30;;
39740;SDS011;25426;53.478;10.190;2023-05-07T14:33:52;4.15;;;2.30;;
39740;SDS011;25426;53.478;10.190;2023-05-07T14:36:23;3.40;;;2.30;;
39740;SDS011;25426;53.478;10.190;2023-05-07T14:38:56;2.35;;;2.15;;
39740;SDS011;25426;53.478;10.190;2023-05-07T14:41:29;2.75;;;2.53;;
39740;SDS011;25426;53.478;10.190;2023-05-07T14:44:01;4.97;;;2.40;;
39740;SDS011;25426;53.478;10.190;2023-05-07T14:46:33;3.08;;;2.55;;
39740;SDS011;25426;53.478;10.190;2023-05-07T14:49:04;2.65;;;2.40;;
39740;SDS011;25426;53.478;10.190;2023-05-07T14:51:36;2.42;;;2.22;;
39740;SDS011;25426;53.478;10.190;2023-05-07T14:54:07;3.53;;;2.35;;
39740;SDS011;25426;53.478;10.190;2023-05-07T14:56:38;2.67;;;2.47;;
39740;SDS011;25426;53.478;10.190;2023-05-07T14:59:10;2.70;;;2.50;;
39740;SDS011;25426;53.478;10.190;2023-05-07T15:01:41;3.15;;;2.85;;
39740;SDS011;25426;53.478;10.190;2023-05-07T15:04:15;2.42;;;2.22;;
39740;SDS011;25426;53.478;10.190;2023-05-07T15:06:46;3.42;;;2.42;;
39740;SDS011;25426;53.478;10.190;2023-05-07T15:09:17;2.58;;;2.15;;
39740;SDS011;25426;53.478;10.190;2023-05-07T15:11:48;2.45;;;2.25;;